sensor_id;sensor_type;location;lat;lon;timestamp;pressure;altitude;pressure_sealevel;temperature
32039;BMP280;18549;42.286;22.688;2022-08-06T00:00:42;95416.31;;;27.56
32039;BMP280;18549;42.286;22.688;2022-08-06T00:03:08;95406.34;;;27.55
32039;BMP280;18549;42.286;22.688;2022-08-06T00:05:35;95409.28;;;27.52
32039;BMP280;18549;42.286;22.688;2022-08-06T00:08:00;95413.22;;;27.48
32039;BMP280;18549;42.286;22.688;2022-08-06T00:10:26;95414.41;;;27.46
32039;BMP280;18549;42.286;22.688;2022-08-06T00:12:52;95417.16;;;27.44
32039;BMP280;18549;42.286;22.688;2022-08-06T00:15:18;95408.78;;;27.37
32039;BMP280;18549;42.286;22.688;2022-08-06T00:17:45;95409.16;;;27.34
32039;BMP280;18549;42.286;22.688;2022-08-06T00:20:14;95426.59;;;27.31
32039;BMP280;18549;42.286;22.688;2022-08-06T00:22:41;95421.31;;;27.26
32039;BMP280;18549;42.286;22.688;2022-08-06T00:25:07;95425.06;;;27.23
32039;BMP280;18549;42.286;22.688;2022-08-06T00:27:34;95418.78;;;27.19
32039;BMP280;18549;42.286;22.688;2022-08-06T00:29:59;95416.84;;;27.15
32039;BMP280;18549;42.286;22.688;2022-08-06T00:32:25;95418.03;;;27.13
32039;BMP280;18549;42.286;22.688;2022-08-06T00:34:51;95417.88;;;27.08
32039;BMP280;18549;42.286;22.688;2022-08-06T00:37:17;95418.81;;;27.07
32039;BMP280;18549;42.286;22.688;2022-08-06T00:39:42;95427.87;;;27.03
32039;BMP280;18549;42.286;22.688;2022-08-06T00:42:08;95420.84;;;26.98
32039;BMP280;18549;42.286;22.688;2022-08-06T00:44:34;95423.97;;;26.94
32039;BMP280;18549;42.286;22.688;2022-08-06T00:47:00;95425.16;;;26.85
32039;BMP280;18549;42.286;22.688;2022-08-06T00:49:26;95420.84;;;26.79
32039;BMP280;18549;42.286;22.688;2022-08-06T00:51:51;95421.25;;;26.76
32039;BMP280;18549;42.286;22.688;2022-08-06T00:54:17;95417.72;;;26.77
32039;BMP280;18549;42.286;22.688;2022-08-06T00:56:44;95423.62;;;26.78
32039;BMP280;18549;42.286;22.688;2022-08-06T00:59:09;95421.25;;;26.76
32039;BMP280;18549;42.286;22.688;2022-08-06T01:01:35;95426.72;;;26.73
32039;BMP280;18549;42.286;22.688;2022-08-06T01:04:00;95427.50;;;26.74
32039;BMP280;18549;42.286;22.688;2022-08-06T01:06:27;95424.19;;;26.73
32039;BMP280;18549;42.286;22.688;2022-08-06T01:08:52;95424.19;;;26.73
32039;BMP280;18549;42.286;22.688;2022-08-06T01:11:18;95418.91;;;26.68
32039;BMP280;18549;42.286;22.688;2022-08-06T01:13:43;95425.75;;;26.68
32039;BMP280;18549;42.286;22.688;2022-08-06T01:16:19;95424.38;;;26.65
32039;BMP280;18549;42.286;22.688;2022-08-06T01:22:02;95428.09;;;26.63
32039;BMP280;18549;42.286;22.688;2022-08-06T01:29:55;95422.25;;;26.50
32039;BMP280;18549;42.286;22.688;2022-08-06T01:32:36;95420.50;;;26.50
32039;BMP280;18549;42.286;22.688;2022-08-06T01:35:05;95415.78;;;26.47
32039;BMP280;18549;42.286;22.688;2022-08-06T01:37:38;95409.16;;;26.46
32039;BMP280;18549;42.286;22.688;2022-08-06T01:40:09;95414.25;;;26.46
32039;BMP280;18549;42.286;22.688;2022-08-06T01:42:36;95417.56;;;26.47
32039;BMP280;18549;42.286;22.688;2022-08-06T01:45:04;95417.75;;;26.45
32039;BMP280;18549;42.286;22.688;2022-08-06T01:47:32;95416.97;;;26.45
32039;BMP280;18549;42.286;22.688;2022-08-06T01:50:02;95416.97;;;26.38
32039;BMP280;18549;42.286;22.688;2022-08-06T01:52:33;95425.59;;;26.37
32039;BMP280;18549;42.286;22.688;2022-08-06T01:55:00;95421.69;;;26.35
32039;BMP280;18549;42.286;22.688;2022-08-06T01:57:28;95426.34;;;26.31
32039;BMP280;18549;42.286;22.688;2022-08-06T01:59:55;95424.41;;;26.27
32039;BMP280;18549;42.286;22.688;2022-08-06T02:02:24;95426.94;;;26.27
32039;BMP280;18549;42.286;22.688;2022-08-06T02:04:54;95424.81;;;26.24
32039;BMP280;18549;42.286;22.688;2022-08-06T02:07:24;95428.69;;;26.20
32039;BMP280;18549;42.286;22.688;2022-08-06T02:09:52;95425.00;;;26.16
32039;BMP280;18549;42.286;22.688;2022-08-06T02:12:22;95429.28;;;26.09
32039;BMP280;18549;42.286;22.688;2022-08-06T02:15:13;95430.03;;;26.03
32039;BMP280;18549;42.286;22.688;2022-08-06T02:17:45;95429.84;;;25.98
32039;BMP280;18549;42.286;22.688;2022-08-06T02:20:14;95422.63;;;25.95
32039;BMP280;18549;42.286;22.688;2022-08-06T02:22:42;95428.06;;;25.92
32039;BMP280;18549;42.286;22.688;2022-08-06T02:25:10;95429.06;;;25.91
32039;BMP280;18549;42.286;22.688;2022-08-06T02:27:38;95423.97;;;25.91
32039;BMP280;18549;42.286;22.688;2022-08-06T02:30:06;95419.28;;;25.88
32039;BMP280;18549;42.286;22.688;2022-08-06T02:32:31;95422.78;;;25.87
32039;BMP280;18549;42.286;22.688;2022-08-06T02:34:57;95423.56;;;25.88
32039;BMP280;18549;42.286;22.688;2022-08-06T02:37:35;95424.72;;;25.85
32039;BMP280;18549;42.286;22.688;2022-08-06T02:40:11;95421.59;;;25.84
32039;BMP280;18549;42.286;22.688;2022-08-06T02:42:45;95431.97;;;25.82
32039;BMP280;18549;42.286;22.688;2022-08-06T02:45:23;95430.22;;;25.83
32039;BMP280;18549;42.286;22.688;2022-08-06T02:48:07;95427.84;;;25.81
32039;BMP280;18549;42.286;22.688;2022-08-06T02:50:41;95425.53;;;25.80
32039;BMP280;18549;42.286;22.688;2022-08-06T02:53:10;95427.47;;;25.78
32039;BMP280;18549;42.286;22.688;2022-08-06T02:55:39;95432.53;;;25.78
32039;BMP280;18549;42.286;22.688;2022-08-06T03:01:01;95438.03;;;25.75
32039;BMP280;18549;42.286;22.688;2022-08-06T03:03:29;95435.47;;;25.75
32039;BMP280;18549;42.286;22.688;2022-08-06T03:05:56;95436.44;;;25.74
32039;BMP280;18549;42.286;22.688;2022-08-06T03:08:24;95429.81;;;25.73
32039;BMP280;18549;42.286;22.688;2022-08-06T03:10:53;95441.31;;;25.69
32039;BMP280;18549;42.286;22.688;2022-08-06T03:13:21;95434.28;;;25.64
32039;BMP280;18549;42.286;22.688;2022-08-06T03:15:49;95436.03;;;25.64
32039;BMP280;18549;42.286;22.688;2022-08-06T03:18:15;95434.06;;;25.59
32039;BMP280;18549;42.286;22.688;2022-08-06T03:20:42;95439.72;;;25.55
32039;BMP280;18549;42.286;22.688;2022-08-06T03:23:09;95434.41;;;25.50
32039;BMP280;18549;42.286;22.688;2022-08-06T03:25:36;95436.94;;;25.50
32039;BMP280;18549;42.286;22.688;2022-08-06T03:28:05;95436.16;;;25.50
32039;BMP280;18549;42.286;22.688;2022-08-06T03:30:33;95426.94;;;25.42
32039;BMP280;18549;42.286;22.688;2022-08-06T03:33:19;95440.41;;;25.36
32039;BMP280;18549;42.286;22.688;2022-08-06T03:35:45;95440.59;;;25.35
32039;BMP280;18549;42.286;22.688;2022-08-06T03:38:12;95441.34;;;25.35
32039;BMP280;18549;42.286;22.688;2022-08-06T03:40:43;95442.72;;;25.31
32039;BMP280;18549;42.286;22.688;2022-08-06T03:43:09;95438.44;;;25.32
32039;BMP280;18549;42.286;22.688;2022-08-06T03:45:38;95442.72;;;25.31
32039;BMP280;18549;42.286;22.688;2022-08-06T03:48:06;95446.22;;;25.30
32039;BMP280;18549;42.286;22.688;2022-08-06T03:50:40;95438.44;;;25.32
32039;BMP280;18549;42.286;22.688;2022-08-06T03:53:12;95444.47;;;25.31
32039;BMP280;18549;42.286;22.688;2022-08-06T03:55:38;95445.44;;;25.30
32039;BMP280;18549;42.286;22.688;2022-08-06T03:58:09;95444.84;;;25.28
32039;BMP280;18549;42.286;22.688;2022-08-06T04:00:44;95446.19;;;25.24
32039;BMP280;18549;42.286;22.688;2022-08-06T04:03:12;95441.50;;;25.21
32039;BMP280;18549;42.286;22.688;2022-08-06T04:05:38;95456.13;;;25.19
32039;BMP280;18549;42.286;22.688;2022-08-06T04:08:06;95455.34;;;25.18
32039;BMP280;18549;42.286;22.688;2022-08-06T04:10:37;95455.72;;;25.16
32039;BMP280;18549;42.286;22.688;2022-08-06T04:13:06;95458.06;;;25.11
32039;BMP280;18549;42.286;22.688;2022-08-06T04:15:34;95462.12;;;25.12
32039;BMP280;18549;42.286;22.688;2022-08-06T04:18:00;95469.56;;;25.13
32039;BMP280;18549;42.286;22.688;2022-08-06T04:20:27;95463.12;;;25.11
32039;BMP280;18549;42.286;22.688;2022-08-06T04:22:54;95465.06;;;25.09
32039;BMP280;18549;42.286;22.688;2022-08-06T04:25:25;95475.56;;;25.06
32039;BMP280;18549;42.286;22.688;2022-08-06T04:27:51;95470.06;;;24.96
32039;BMP280;18549;42.286;22.688;2022-08-06T04:30:18;95470.44;;;24.93
32039;BMP280;18549;42.286;22.688;2022-08-06T04:32:45;95477.25;;;24.92
32039;BMP280;18549;42.286;22.688;2022-08-06T04:35:11;95476.66;;;24.90
32039;BMP280;18549;42.286;22.688;2022-08-06T04:37:38;95482.50;;;24.91
32039;BMP280;18549;42.286;22.688;2022-08-06T04:40:06;95481.72;;;24.90
32039;BMP280;18549;42.286;22.688;2022-08-06T04:42:33;95476.66;;;24.90
32039;BMP280;18549;42.286;22.688;2022-08-06T04:44:58;95481.72;;;24.90
32039;BMP280;18549;42.286;22.688;2022-08-06T04:47:30;95476.88;;;24.95
32039;BMP280;18549;42.286;22.688;2022-08-06T04:49:56;95480.63;;;24.99
32039;BMP280;18549;42.286;22.688;2022-08-06T04:52:24;95478.66;;;25.01
32039;BMP280;18549;42.286;22.688;2022-08-06T04:54:50;95482.94;;;25.01
32039;BMP280;18549;42.286;22.688;2022-08-06T04:57:16;95488.00;;;25.01
32039;BMP280;18549;42.286;22.688;2022-08-06T04:59:41;95497.34;;;24.94
32039;BMP280;18549;42.286;22.688;2022-08-06T05:02:07;95500.47;;;24.96
32039;BMP280;18549;42.286;22.688;2022-08-06T05:04:33;95493.25;;;24.93
32039;BMP280;18549;42.286;22.688;2022-08-06T05:07:20;95499.28;;;24.92
32039;BMP280;18549;42.286;22.688;2022-08-06T05:09:47;95500.84;;;24.93
32039;BMP280;18549;42.286;22.688;2022-08-06T05:12:33;95495.56;;;24.94
32039;BMP280;18549;42.286;22.688;2022-08-06T05:17:33;95499.38;;;25.05
32039;BMP280;18549;42.286;22.688;2022-08-06T05:20:09;95496.66;;;25.06
32039;BMP280;18549;42.286;22.688;2022-08-06T05:22:37;95480.66;;;25.12
32039;BMP280;18549;42.286;22.688;2022-08-06T05:25:05;95491.84;;;25.18
32039;BMP280;18549;42.286;22.688;2022-08-06T05:27:31;95479.94;;;25.18
32039;BMP280;18549;42.286;22.688;2022-08-06T05:29:56;95489.50;;;25.22
32039;BMP280;18549;42.286;22.688;2022-08-06T05:32:22;95489.13;;;25.25
32039;BMP280;18549;42.286;22.688;2022-08-06T05:34:47;95496.00;;;25.31
32039;BMP280;18549;42.286;22.688;2022-08-06T05:37:13;95496.41;;;25.35
32039;BMP280;18549;42.286;22.688;2022-08-06T05:39:39;95488.59;;;25.36
32039;BMP280;18549;42.286;22.688;2022-08-06T05:42:07;95495.22;;;25.37
32039;BMP280;18549;42.286;22.688;2022-08-06T05:44:32;95497.59;;;25.39
32039;BMP280;18549;42.286;22.688;2022-08-06T05:47:03;95486.66;;;25.38
32039;BMP280;18549;42.286;22.688;2022-08-06T05:49:40;95487.44;;;25.39
32039;BMP280;18549;42.286;22.688;2022-08-06T05:52:38;95487.63;;;25.37
32039;BMP280;18549;42.286;22.688;2022-08-06T05:58:04;95482.16;;;25.40
32039;BMP280;18549;42.286;22.688;2022-08-06T06:00:33;95483.34;;;25.44
32039;BMP280;18549;42.286;22.688;2022-08-06T06:03:03;95477.31;;;25.45
32039;BMP280;18549;42.286;22.688;2022-08-06T06:05:30;95480.47;;;25.47
32039;BMP280;18549;42.286;22.688;2022-08-06T06:07:57;95475.00;;;25.50
32039;BMP280;18549;42.286;22.688;2022-08-06T06:10:23;95469.94;;;25.50
32039;BMP280;18549;42.286;22.688;2022-08-06T06:12:49;95467.97;;;25.52
32039;BMP280;18549;42.286;22.688;2022-08-06T06:15:16;95466.63;;;25.56
32039;BMP280;18549;42.286;22.688;2022-08-06T06:18:08;95477.59;;;25.56
32039;BMP280;18549;42.286;22.688;2022-08-06T06:21:33;95471.16;;;25.54
32039;BMP280;18549;42.286;22.688;2022-08-06T06:23:42;95473.28;;;25.57
32039;BMP280;18549;42.286;22.688;2022-08-06T06:28:57;95468.25;;;25.70
32039;BMP280;18549;42.286;22.688;2022-08-06T06:31:33;95461.81;;;25.74
32039;BMP280;18549;42.286;22.688;2022-08-06T06:34:20;95464.78;;;25.77
32039;BMP280;18549;42.286;22.688;2022-08-06T06:36:56;95466.31;;;25.78
32039;BMP280;18549;42.286;22.688;2022-08-06T06:39:38;95461.81;;;25.74
32039;BMP280;18549;42.286;22.688;2022-08-06T06:42:18;95462.84;;;25.79
32039;BMP280;18549;42.286;22.688;2022-08-06T06:45:11;95454.03;;;25.82
32039;BMP280;18549;42.286;22.688;2022-08-06T06:47:47;95453.63;;;25.78
32039;BMP280;18549;42.286;22.688;2022-08-06T06:50:22;95445.03;;;25.85
32039;BMP280;18549;42.286;22.688;2022-08-06T06:52:51;95445.84;;;25.92
32039;BMP280;18549;42.286;22.688;2022-08-06T06:55:22;95443.69;;;25.89
32039;BMP280;18549;42.286;22.688;2022-08-06T06:58:12;95440.75;;;25.92
32039;BMP280;18549;42.286;22.688;2022-08-06T07:00:40;95438.44;;;25.97
32039;BMP280;18549;42.286;22.688;2022-08-06T07:03:08;95436.47;;;25.99
32039;BMP280;18549;42.286;22.688;2022-08-06T07:05:35;95435.31;;;26.02
32039;BMP280;18549;42.286;22.688;2022-08-06T07:08:04;95435.91;;;26.04
32039;BMP280;18549;42.286;22.688;2022-08-06T07:10:31;95427.50;;;26.10
32039;BMP280;18549;42.286;22.688;2022-08-06T07:12:57;95430.09;;;26.16
32039;BMP280;18549;42.286;22.688;2022-08-06T07:15:25;95437.13;;;26.20
32039;BMP280;18549;42.286;22.688;2022-08-06T07:17:51;95428.72;;;26.26
32039;BMP280;18549;42.286;22.688;2022-08-06T07:20:25;95428.34;;;26.29
32039;BMP280;18549;42.286;22.688;2022-08-06T07:22:53;95429.88;;;26.30
32039;BMP280;18549;42.286;22.688;2022-08-06T07:25:20;95422.47;;;26.35
32039;BMP280;18549;42.286;22.688;2022-08-06T07:27:49;95416.19;;;26.38
32039;BMP280;18549;42.286;22.688;2022-08-06T07:30:18;95419.91;;;26.42
32039;BMP280;18549;42.286;22.688;2022-08-06T07:32:45;95416.59;;;26.48
32039;BMP280;18549;42.286;22.688;2022-08-06T07:35:11;95412.06;;;26.50
32039;BMP280;18549;42.286;22.688;2022-08-06T07:37:41;95413.44;;;26.58
32039;BMP280;18549;42.286;22.688;2022-08-06T07:40:10;95415.59;;;26.61
32039;BMP280;18549;42.286;22.688;2022-08-06T07:42:39;95422.41;;;26.74
32039;BMP280;18549;42.286;22.688;2022-08-06T07:45:07;95409.53;;;26.75
32039;BMP280;18549;42.286;22.688;2022-08-06T07:47:39;95410.09;;;26.84
32039;BMP280;18549;42.286;22.688;2022-08-06T07:50:07;95410.09;;;26.90
32039;BMP280;18549;42.286;22.688;2022-08-06T07:52:35;95411.03;;;27.02
32039;BMP280;18549;42.286;22.688;2022-08-06T07:55:01;95408.62;;;27.13
32039;BMP280;18549;42.286;22.688;2022-08-06T07:57:28;95406.25;;;27.24
32039;BMP280;18549;42.286;22.688;2022-08-06T07:59:54;95402.06;;;27.36
32039;BMP280;18549;42.286;22.688;2022-08-06T08:02:20;95393.66;;;27.49
32039;BMP280;18549;42.286;22.688;2022-08-06T08:04:46;95400.22;;;27.62
32039;BMP280;18549;42.286;22.688;2022-08-06T08:07:31;95397.66;;;27.69
32039;BMP280;18549;42.286;22.688;2022-08-06T08:09:58;95395.84;;;27.76
32039;BMP280;18549;42.286;22.688;2022-08-06T08:12:24;95387.94;;;27.84
32039;BMP280;18549;42.286;22.688;2022-08-06T08:14:51;95392.38;;;27.94
32039;BMP280;18549;42.286;22.688;2022-08-06T08:17:17;95398.37;;;28.06
32039;BMP280;18549;42.286;22.688;2022-08-06T08:19:42;95395.56;;;28.14
32039;BMP280;18549;42.286;22.688;2022-08-06T08:24:37;95401.72;;;28.31
32039;BMP280;18549;42.286;22.688;2022-08-06T08:27:06;95404.00;;;28.39
32039;BMP280;18549;42.286;22.688;2022-08-06T08:29:35;95396.94;;;28.41
32039;BMP280;18549;42.286;22.688;2022-08-06T08:32:03;95404.16;;;28.44
32039;BMP280;18549;42.286;22.688;2022-08-06T08:34:29;95394.31;;;28.54
32039;BMP280;18549;42.286;22.688;2022-08-06T08:36:54;95388.91;;;28.61
32039;BMP280;18549;42.286;22.688;2022-08-06T08:39:20;95383.56;;;28.69
32039;BMP280;18549;42.286;22.688;2022-08-06T08:41:51;95382.28;;;28.78
32039;BMP280;18549;42.286;22.688;2022-08-06T08:44:22;95393.34;;;28.90
32039;BMP280;18549;42.286;22.688;2022-08-06T08:46:50;95385.94;;;29.00
32039;BMP280;18549;42.286;22.688;2022-08-06T08:49:45;95384.88;;;29.07
32039;BMP280;18549;42.286;22.688;2022-08-06T08:52:13;95389.09;;;29.20
32039;BMP280;18549;42.286;22.688;2022-08-06T08:54:41;95376.03;;;29.27
32039;BMP280;18549;42.286;22.688;2022-08-06T08:57:08;95375.94;;;29.34
32039;BMP280;18549;42.286;22.688;2022-08-06T08:59:35;95378.56;;;29.45
32039;BMP280;18549;42.286;22.688;2022-08-06T09:02:02;95380.38;;;29.56
32039;BMP280;18549;42.286;22.688;2022-08-06T09:04:31;95374.06;;;29.58
32039;BMP280;18549;42.286;22.688;2022-08-06T09:06:58;95375.09;;;29.69
32039;BMP280;18549;42.286;22.688;2022-08-06T09:09:25;95373.78;;;29.78
32039;BMP280;18549;42.286;22.688;2022-08-06T09:11:52;95373.91;;;29.83
32039;BMP280;18549;42.286;22.688;2022-08-06T09:14:20;95374.72;;;29.94
32039;BMP280;18549;42.286;22.688;2022-08-06T09:16:45;95372.63;;;30.03
32039;BMP280;18549;42.286;22.688;2022-08-06T09:19:11;95365.06;;;30.08
32039;BMP280;18549;42.286;22.688;2022-08-06T09:21:37;95369.53;;;30.12
32039;BMP280;18549;42.286;22.688;2022-08-06T09:24:04;95355.81;;;30.24
32039;BMP280;18549;42.286;22.688;2022-08-06T09:26:29;95353.78;;;30.38
32039;BMP280;18549;42.286;22.688;2022-08-06T09:28:58;95357.69;;;30.29
32039;BMP280;18549;42.286;22.688;2022-08-06T09:31:24;95354.56;;;30.38
32039;BMP280;18549;42.286;22.688;2022-08-06T09:33:57;95343.53;;;30.49
32039;BMP280;18549;42.286;22.688;2022-08-06T09:36:22;95348.34;;;30.57
32039;BMP280;18549;42.286;22.688;2022-08-06T09:38:50;95348.78;;;30.65
32039;BMP280;18549;42.286;22.688;2022-08-06T09:41:19;95346.31;;;30.70
32039;BMP280;18549;42.286;22.688;2022-08-06T09:43:46;95341.88;;;30.77
32039;BMP280;18549;42.286;22.688;2022-08-06T09:46:12;95340.97;;;30.83
32039;BMP280;18549;42.286;22.688;2022-08-06T09:48:55;95337.06;;;30.92
32039;BMP280;18549;42.286;22.688;2022-08-06T09:51:21;95335.06;;;30.83
32039;BMP280;18549;42.286;22.688;2022-08-06T09:53:58;95331.59;;;31.00
32039;BMP280;18549;42.286;22.688;2022-08-06T09:56:25;95338.13;;;31.07
32039;BMP280;18549;42.286;22.688;2022-08-06T09:58:58;95327.31;;;31.17
32039;BMP280;18549;42.286;22.688;2022-08-06T10:01:24;95336.19;;;31.25
32039;BMP280;18549;42.286;22.688;2022-08-06T10:03:52;95328.72;;;31.24
32039;BMP280;18549;42.286;22.688;2022-08-06T10:06:18;95328.06;;;31.17
32039;BMP280;18549;42.286;22.688;2022-08-06T10:08:48;95322.91;;;31.01
32039;BMP280;18549;42.286;22.688;2022-08-06T10:11:15;95316.78;;;31.02
32039;BMP280;18549;42.286;22.688;2022-08-06T10:13:46;95319.78;;;30.99
32039;BMP280;18549;42.286;22.688;2022-08-06T10:16:20;95315.22;;;31.01
32039;BMP280;18549;42.286;22.688;2022-08-06T10:18:52;95312.41;;;31.14
32039;BMP280;18549;42.286;22.688;2022-08-06T10:21:20;95308.13;;;31.30
32039;BMP280;18549;42.286;22.688;2022-08-06T10:23:50;95304.75;;;31.41
32039;BMP280;18549;42.286;22.688;2022-08-06T10:26:27;95296.91;;;31.48
32039;BMP280;18549;42.286;22.688;2022-08-06T10:28:53;95306.22;;;31.54
32039;BMP280;18549;42.286;22.688;2022-08-06T10:31:20;95303.38;;;31.66
32039;BMP280;18549;42.286;22.688;2022-08-06T10:34:11;95305.06;;;31.61
32039;BMP280;18549;42.286;22.688;2022-08-06T10:36:59;95308.50;;;31.66
32039;BMP280;18549;42.286;22.688;2022-08-06T10:39:30;95301.69;;;31.88
32039;BMP280;18549;42.286;22.688;2022-08-06T10:41:58;95302.44;;;31.72
32039;BMP280;18549;42.286;22.688;2022-08-06T10:44:24;95307.44;;;31.79
32039;BMP280;18549;42.286;22.688;2022-08-06T10:46:51;95306.97;;;31.82
32039;BMP280;18549;42.286;22.688;2022-08-06T10:49:21;95300.91;;;31.88
32039;BMP280;18549;42.286;22.688;2022-08-06T10:51:48;95307.22;;;31.80
32039;BMP280;18549;42.286;22.688;2022-08-06T10:54:15;95301.97;;;31.75
32039;BMP280;18549;42.286;22.688;2022-08-06T10:56:41;95306.00;;;31.71
32039;BMP280;18549;42.286;22.688;2022-08-06T10:59:07;95309.28;;;31.67
32039;BMP280;18549;42.286;22.688;2022-08-06T11:01:43;95304.91;;;31.67
32039;BMP280;18549;42.286;22.688;2022-08-06T11:04:18;95299.78;;;31.67
32039;BMP280;18549;42.286;22.688;2022-08-06T11:14:37;95300.53;;;31.35
32039;BMP280;18549;42.286;22.688;2022-08-06T11:17:02;95294.31;;;31.31
32039;BMP280;18549;42.286;22.688;2022-08-06T11:22:07;95292.88;;;31.24
32039;BMP280;18549;42.286;22.688;2022-08-06T11:24:33;95297.78;;;31.25
32039;BMP280;18549;42.286;22.688;2022-08-06T11:26:59;95293.63;;;31.24
32039;BMP280;18549;42.286;22.688;2022-08-06T11:29:24;95292.31;;;31.22
32039;BMP280;18549;42.286;22.688;2022-08-06T11:31:50;95291.00;;;31.20
32039;BMP280;18549;42.286;22.688;2022-08-06T11:34:19;95289.44;;;31.19
32039;BMP280;18549;42.286;22.688;2022-08-06T11:36:57;95288.34;;;31.15
32039;BMP280;18549;42.286;22.688;2022-08-06T11:39:25;95283.69;;;31.12
32039;BMP280;18549;42.286;22.688;2022-08-06T11:41:56;95282.28;;;31.04
32039;BMP280;18549;42.286;22.688;2022-08-06T11:44:24;95284.03;;;31.04
32039;BMP280;18549;42.286;22.688;2022-08-06T11:47:09;95282.53;;;31.19
32039;BMP280;18549;42.286;22.688;2022-08-06T11:49:45;95279.06;;;31.25
32039;BMP280;18549;42.286;22.688;2022-08-06T11:55:04;95274.00;;;31.41
32039;BMP280;18549;42.286;22.688;2022-08-06T11:57:33;95276.44;;;31.48
32039;BMP280;18549;42.286;22.688;2022-08-06T12:05:06;95266.69;;;31.50
32039;BMP280;18549;42.286;22.688;2022-08-06T12:07:33;95260.50;;;31.62
32039;BMP280;18549;42.286;22.688;2022-08-06T12:12:43;95254.00;;;31.71
32039;BMP280;18549;42.286;22.688;2022-08-06T12:17:38;95260.66;;;31.72
32039;BMP280;18549;42.286;22.688;2022-08-06T12:20:05;95263.78;;;31.74
32039;BMP280;18549;42.286;22.688;2022-08-06T12:22:32;95250.28;;;31.78
32039;BMP280;18549;42.286;22.688;2022-08-06T12:24:59;95244.53;;;31.88
32039;BMP280;18549;42.286;22.688;2022-08-06T12:27:35;95242.81;;;32.09
32039;BMP280;18549;42.286;22.688;2022-08-06T12:30:02;95240.84;;;32.32
32039;BMP280;18549;42.286;22.688;2022-08-06T12:32:34;95231.34;;;32.54
32039;BMP280;18549;42.286;22.688;2022-08-06T12:35:02;95233.88;;;32.75
32039;BMP280;18549;42.286;22.688;2022-08-06T12:40:07;95236.28;;;33.03
32039;BMP280;18549;42.286;22.688;2022-08-06T12:42:52;95230.88;;;33.25
32039;BMP280;18549;42.286;22.688;2022-08-06T12:45:22;95226.59;;;33.36
32039;BMP280;18549;42.286;22.688;2022-08-06T12:48:05;95233.03;;;33.38
32039;BMP280;18549;42.286;22.688;2022-08-06T12:50:34;95241.12;;;33.25
32039;BMP280;18549;42.286;22.688;2022-08-06T12:53:12;95243.28;;;33.07
32039;BMP280;18549;42.286;22.688;2022-08-06T12:55:50;95242.75;;;32.84
32039;BMP280;18549;42.286;22.688;2022-08-06T12:58:18;95231.22;;;32.65
32039;BMP280;18549;42.286;22.688;2022-08-06T13:00:48;95231.53;;;32.48
32039;BMP280;18549;42.286;22.688;2022-08-06T13:03:14;95226.59;;;32.41
32039;BMP280;18549;42.286;22.688;2022-08-06T13:05:41;95226.22;;;32.33
32039;BMP280;18549;42.286;22.688;2022-08-06T13:08:09;95224.81;;;32.25
32039;BMP280;18549;42.286;22.688;2022-08-06T13:10:34;95220.25;;;32.49
32039;BMP280;18549;42.286;22.688;2022-08-06T13:13:02;95214.87;;;32.71
32039;BMP280;18549;42.286;22.688;2022-08-06T13:15:30;95218.75;;;32.95
32039;BMP280;18549;42.286;22.688;2022-08-06T13:18:16;95212.19;;;33.09
32039;BMP280;18549;42.286;22.688;2022-08-06T13:20:47;95219.34;;;33.28
32039;BMP280;18549;42.286;22.688;2022-08-06T13:23:32;95213.59;;;33.47
32039;BMP280;18549;42.286;22.688;2022-08-06T13:25:58;95219.16;;;33.70
32039;BMP280;18549;42.286;22.688;2022-08-06T13:28:25;95212.03;;;33.77
32039;BMP280;18549;42.286;22.688;2022-08-06T13:30:51;95208.00;;;33.91
32039;BMP280;18549;42.286;22.688;2022-08-06T13:33:18;95200.03;;;33.88
32039;BMP280;18549;42.286;22.688;2022-08-06T13:35:45;95208.75;;;33.87
32039;BMP280;18549;42.286;22.688;2022-08-06T13:38:11;95202.59;;;33.83
32039;BMP280;18549;42.286;22.688;2022-08-06T13:40:50;95198.94;;;33.79
32039;BMP280;18549;42.286;22.688;2022-08-06T13:43:16;95208.53;;;33.93
32039;BMP280;18549;42.286;22.688;2022-08-06T13:45:41;95212.22;;;34.07
32039;BMP280;18549;42.286;22.688;2022-08-06T13:48:09;95210.50;;;34.22
32039;BMP280;18549;42.286;22.688;2022-08-06T13:50:37;95195.38;;;34.30
32039;BMP280;18549;42.286;22.688;2022-08-06T13:53:04;95204.38;;;34.28
32039;BMP280;18549;42.286;22.688;2022-08-06T13:55:30;95205.81;;;34.09
32039;BMP280;18549;42.286;22.688;2022-08-06T13:57:57;95208.66;;;34.08
32039;BMP280;18549;42.286;22.688;2022-08-06T14:00:23;95207.87;;;34.12
32039;BMP280;18549;42.286;22.688;2022-08-06T14:02:50;95208.38;;;34.09
32039;BMP280;18549;42.286;22.688;2022-08-06T14:05:17;95202.41;;;33.99
32039;BMP280;18549;42.286;22.688;2022-08-06T14:07:43;95199.72;;;33.79
32039;BMP280;18549;42.286;22.688;2022-08-06T14:10:09;95205.75;;;33.63
32039;BMP280;18549;42.286;22.688;2022-08-06T14:12:35;95198.59;;;33.34
32039;BMP280;18549;42.286;22.688;2022-08-06T14:15:01;95200.09;;;33.30
32039;BMP280;18549;42.286;22.688;2022-08-06T14:17:27;95196.59;;;33.15
32039;BMP280;18549;42.286;22.688;2022-08-06T14:19:52;95196.94;;;32.97
32039;BMP280;18549;42.286;22.688;2022-08-06T14:22:17;95202.00;;;32.88
32039;BMP280;18549;42.286;22.688;2022-08-06T14:24:43;95198.13;;;32.85
32039;BMP280;18549;42.286;22.688;2022-08-06T14:27:11;95194.47;;;32.81
32039;BMP280;18549;42.286;22.688;2022-08-06T14:29:36;95190.78;;;32.77
32039;BMP280;18549;42.286;22.688;2022-08-06T14:32:03;95188.94;;;32.73
32039;BMP280;18549;42.286;22.688;2022-08-06T14:34:29;95196.91;;;32.71
32039;BMP280;18549;42.286;22.688;2022-08-06T14:36:55;95195.34;;;32.70
32039;BMP280;18549;42.286;22.688;2022-08-06T14:39:20;95193.28;;;32.67
32039;BMP280;18549;42.286;22.688;2022-08-06T14:41:46;95188.69;;;32.69
32039;BMP280;18549;42.286;22.688;2022-08-06T14:44:31;95197.72;;;32.77
32039;BMP280;18549;42.286;22.688;2022-08-06T15:40:35;95177.53;;;32.17
32039;BMP280;18549;42.286;22.688;2022-08-06T15:43:02;95176.25;;;32.19
32039;BMP280;18549;42.286;22.688;2022-08-06T15:45:27;95171.91;;;32.20
32039;BMP280;18549;42.286;22.688;2022-08-06T15:47:53;95177.81;;;32.20
32039;BMP280;18549;42.286;22.688;2022-08-06T15:50:18;95175.50;;;32.19